sensor_id;sensor_type;location;lat;lon;timestamp;P1;durP1;ratioP1;P2;durP2;ratioP2
46753;SDS011;32500;50.620;3.400;2023-02-08T00:02:00;67.80;;;53.80;;
46753;SDS011;32500;50.620;3.400;2023-02-08T00:04:26;68.70;;;54.63;;
46753;SDS011;32500;50.620;3.400;2023-02-08T00:06:51;66.70;;;54.03;;
46753;SDS011;32500;50.620;3.400;2023-02-08T00:09:17;67.05;;;53.78;;
46753;SDS011;32500;50.620;3.400;2023-02-08T00:11:43;68.30;;;53.55;;
46753;SDS011;32500;50.620;3.400;2023-02-08T00:14:08;69.30;;;53.92;;
46753;SDS011;32500;50.620;3.400;2023-02-08T00:16:35;67.22;;;52.95;;
46753;SDS011;32500;50.620;3.400;2023-02-08T00:19:01;70.03;;;54.15;;
46753;SDS011;32500;50.620;3.400;2023-02-08T00:21:26;68.65;;;54.00;;
46753;SDS011;32500;50.620;3.400;2023-02-08T00:23:52;67.20;;;53.30;;
46753;SDS011;32500;50.620;3.400;2023-02-08T00:26:17;66.43;;;53.67;;
46753;SDS011;32500;50.620;3.400;2023-02-08T00:28:43;70.80;;;54.15;;
46753;SDS011;32500;50.620;3.400;2023-02-08T00:31:09;66.70;;;53.47;;
46753;SDS011;32500;50.620;3.400;2023-02-08T00:33:35;66.60;;;52.97;;
46753;SDS011;32500;50.620;3.400;2023-02-08T00:36:01;67.43;;;54.13;;
46753;SDS011;32500;50.620;3.400;2023-02-08T00:38:28;67.63;;;53.80;;
46753;SDS011;32500;50.620;3.400;2023-02-08T00:40:55;69.15;;;53.60;;
46753;SDS011;32500;50.620;3.400;2023-02-08T00:43:21;65.72;;;52.88;;
46753;SDS011;32500;50.620;3.400;2023-02-08T00:45:47;67.50;;;53.25;;
46753;SDS011;32500;50.620;3.400;2023-02-08T00:48:21;66.35;;;53.35;;
46753;SDS011;32500;50.620;3.400;2023-02-08T00:51:05;67.20;;;54.15;;
46753;SDS011;32500;50.620;3.400;2023-02-08T00:53:38;67.93;;;53.93;;
46753;SDS011;32500;50.620;3.400;2023-02-08T00:56:06;67.40;;;54.38;;
46753;SDS011;32500;50.620;3.400;2023-02-08T00:58:33;66.90;;;53.63;;
46753;SDS011;32500;50.620;3.400;2023-02-08T01:00:59;66.05;;;53.28;;
46753;SDS011;32500;50.620;3.400;2023-02-08T01:03:25;66.13;;;53.83;;
46753;SDS011;32500;50.620;3.400;2023-02-08T01:05:52;67.28;;;53.28;;
46753;SDS011;32500;50.620;3.400;2023-02-08T01:08:18;68.95;;;54.50;;
46753;SDS011;32500;50.620;3.400;2023-02-08T01:10:45;67.43;;;53.90;;
46753;SDS011;32500;50.620;3.400;2023-02-08T01:13:10;65.03;;;52.75;;
46753;SDS011;32500;50.620;3.400;2023-02-08T01:15:36;66.25;;;53.30;;
46753;SDS011;32500;50.620;3.400;2023-02-08T01:18:02;66.63;;;53.42;;
46753;SDS011;32500;50.620;3.400;2023-02-08T01:20:28;66.43;;;53.28;;
46753;SDS011;32500;50.620;3.400;2023-02-08T01:22:54;64.85;;;52.78;;
46753;SDS011;32500;50.620;3.400;2023-02-08T01:25:20;68.20;;;52.88;;
46753;SDS011;32500;50.620;3.400;2023-02-08T01:27:46;67.25;;;54.20;;
46753;SDS011;32500;50.620;3.400;2023-02-08T01:30:12;67.90;;;53.92;;
46753;SDS011;32500;50.620;3.400;2023-02-08T01:32:38;66.03;;;53.55;;
46753;SDS011;32500;50.620;3.400;2023-02-08T01:35:03;66.25;;;53.22;;
46753;SDS011;32500;50.620;3.400;2023-02-08T01:37:29;68.20;;;54.17;;
46753;SDS011;32500;50.620;3.400;2023-02-08T01:39:55;64.95;;;52.80;;
46753;SDS011;32500;50.620;3.400;2023-02-08T01:42:21;64.97;;;52.97;;
46753;SDS011;32500;50.620;3.400;2023-02-08T01:47:43;65.50;;;52.83;;
46753;SDS011;32500;50.620;3.400;2023-02-08T01:50:11;65.30;;;52.95;;
46753;SDS011;32500;50.620;3.400;2023-02-08T01:52:38;65.57;;;52.72;;
46753;SDS011;32500;50.620;3.400;2023-02-08T01:55:06;66.38;;;53.25;;
46753;SDS011;32500;50.620;3.400;2023-02-08T01:57:35;63.35;;;52.13;;
46753;SDS011;32500;50.620;3.400;2023-02-08T02:00:07;66.05;;;52.63;;
46753;SDS011;32500;50.620;3.400;2023-02-08T02:02:39;66.05;;;53.58;;
46753;SDS011;32500;50.620;3.400;2023-02-08T02:05:06;65.65;;;53.15;;
46753;SDS011;32500;50.620;3.400;2023-02-08T02:07:32;66.97;;;53.47;;
46753;SDS011;32500;50.620;3.400;2023-02-08T02:10:15;66.43;;;53.13;;
46753;SDS011;32500;50.620;3.400;2023-02-08T02:12:46;66.28;;;52.85;;
46753;SDS011;32500;50.620;3.400;2023-02-08T02:15:14;69.22;;;54.47;;
46753;SDS011;32500;50.620;3.400;2023-02-08T02:17:40;66.38;;;53.53;;
46753;SDS011;32500;50.620;3.400;2023-02-08T02:20:08;64.32;;;52.47;;
46753;SDS011;32500;50.620;3.400;2023-02-08T02:23:07;65.25;;;53.13;;
46753;SDS011;32500;50.620;3.400;2023-02-08T02:26:10;66.35;;;52.38;;
46753;SDS011;32500;50.620;3.400;2023-02-08T02:34:49;65.38;;;52.65;;
46753;SDS011;32500;50.620;3.400;2023-02-08T02:37:36;67.68;;;53.00;;
46753;SDS011;32500;50.620;3.400;2023-02-08T02:43:10;66.17;;;53.67;;
46753;SDS011;32500;50.620;3.400;2023-02-08T02:57:04;63.05;;;51.70;;
46753;SDS011;32500;50.620;3.400;2023-02-08T02:59:33;64.05;;;52.95;;
46753;SDS011;32500;50.620;3.400;2023-02-08T03:02:02;62.58;;;51.67;;
46753;SDS011;32500;50.620;3.400;2023-02-08T03:20:24;62.63;;;52.55;;
46753;SDS011;32500;50.620;3.400;2023-02-08T03:23:10;65.93;;;52.60;;
46753;SDS011;32500;50.620;3.400;2023-02-08T03:29:03;64.30;;;52.10;;
46753;SDS011;32500;50.620;3.400;2023-02-08T03:37:40;65.72;;;52.25;;
46753;SDS011;32500;50.620;3.400;2023-02-08T03:39:49;65.43;;;52.63;;
46753;SDS011;32500;50.620;3.400;2023-02-08T03:42:21;63.75;;;51.80;;
46753;SDS011;32500;50.620;3.400;2023-02-08T03:44:51;62.90;;;52.00;;
46753;SDS011;32500;50.620;3.400;2023-02-08T03:47:25;61.90;;;51.42;;
46753;SDS011;32500;50.620;3.400;2023-02-08T03:49:54;62.13;;;51.23;;
46753;SDS011;32500;50.620;3.400;2023-02-08T03:52:24;63.30;;;52.58;;
46753;SDS011;32500;50.620;3.400;2023-02-08T03:55:09;63.17;;;51.47;;
46753;SDS011;32500;50.620;3.400;2023-02-08T04:03:12;64.87;;;52.57;;
46753;SDS011;32500;50.620;3.400;2023-02-08T04:05:43;64.57;;;52.67;;
46753;SDS011;32500;50.620;3.400;2023-02-08T04:08:09;61.73;;;51.80;;
46753;SDS011;32500;50.620;3.400;2023-02-08T04:10:35;62.33;;;51.83;;
46753;SDS011;32500;50.620;3.400;2023-02-08T04:13:00;65.03;;;52.13;;
46753;SDS011;32500;50.620;3.400;2023-02-08T04:15:26;62.47;;;51.93;;
46753;SDS011;32500;50.620;3.400;2023-02-08T04:17:52;65.73;;;52.20;;
46753;SDS011;32500;50.620;3.400;2023-02-08T04:20:18;63.90;;;52.30;;
46753;SDS011;32500;50.620;3.400;2023-02-08T04:22:44;62.90;;;51.90;;
46753;SDS011;32500;50.620;3.400;2023-02-08T04:25:09;63.73;;;52.37;;
46753;SDS011;32500;50.620;3.400;2023-02-08T04:27:35;64.40;;;52.57;;
46753;SDS011;32500;50.620;3.400;2023-02-08T04:30:02;64.20;;;52.53;;
46753;SDS011;32500;50.620;3.400;2023-02-08T04:32:28;64.70;;;52.23;;
46753;SDS011;32500;50.620;3.400;2023-02-08T04:34:54;63.77;;;51.97;;
46753;SDS011;32500;50.620;3.400;2023-02-08T04:37:19;65.67;;;52.37;;
46753;SDS011;32500;50.620;3.400;2023-02-08T04:39:45;63.23;;;51.80;;
46753;SDS011;32500;50.620;3.400;2023-02-08T04:42:11;65.00;;;51.77;;
46753;SDS011;32500;50.620;3.400;2023-02-08T04:44:36;61.78;;;51.67;;
46753;SDS011;32500;50.620;3.400;2023-02-08T04:47:02;63.07;;;52.33;;
46753;SDS011;32500;50.620;3.400;2023-02-08T04:49:28;63.90;;;51.90;;
46753;SDS011;32500;50.620;3.400;2023-02-08T04:51:53;62.77;;;52.00;;
46753;SDS011;32500;50.620;3.400;2023-02-08T04:54:19;63.87;;;53.03;;
46753;SDS011;32500;50.620;3.400;2023-02-08T04:56:45;63.13;;;51.90;;
46753;SDS011;32500;50.620;3.400;2023-02-08T04:59:10;63.20;;;51.50;;
46753;SDS011;32500;50.620;3.400;2023-02-08T05:01:36;63.83;;;52.10;;
46753;SDS011;32500;50.620;3.400;2023-02-08T05:04:02;64.47;;;52.13;;
46753;SDS011;32500;50.620;3.400;2023-02-08T05:06:27;64.70;;;52.03;;
46753;SDS011;32500;50.620;3.400;2023-02-08T05:08:53;63.07;;;52.23;;
46753;SDS011;32500;50.620;3.400;2023-02-08T05:11:19;65.37;;;52.33;;
46753;SDS011;32500;50.620;3.400;2023-02-08T05:13:46;63.03;;;52.43;;
46753;SDS011;32500;50.620;3.400;2023-02-08T05:16:12;61.53;;;51.40;;
46753;SDS011;32500;50.620;3.400;2023-02-08T05:18:38;63.37;;;51.37;;
46753;SDS011;32500;50.620;3.400;2023-02-08T05:21:04;64.50;;;52.23;;
46753;SDS011;32500;50.620;3.400;2023-02-08T05:23:29;61.73;;;51.20;;
46753;SDS011;32500;50.620;3.400;2023-02-08T05:25:56;62.97;;;51.60;;
46753;SDS011;32500;50.620;3.400;2023-02-08T05:28:22;62.93;;;51.80;;
46753;SDS011;32500;50.620;3.400;2023-02-08T05:30:47;63.50;;;52.10;;
46753;SDS011;32500;50.620;3.400;2023-02-08T05:33:13;61.67;;;51.30;;
46753;SDS011;32500;50.620;3.400;2023-02-08T05:35:39;63.47;;;52.23;;
46753;SDS011;32500;50.620;3.400;2023-02-08T05:38:05;61.57;;;51.77;;
46753;SDS011;32500;50.620;3.400;2023-02-08T05:40:31;60.83;;;51.40;;
46753;SDS011;32500;50.620;3.400;2023-02-08T05:42:57;62.40;;;50.50;;
46753;SDS011;32500;50.620;3.400;2023-02-08T05:45:23;62.77;;;51.97;;
46753;SDS011;32500;50.620;3.400;2023-02-08T05:47:49;62.90;;;51.07;;
46753;SDS011;32500;50.620;3.400;2023-02-08T05:50:14;63.63;;;51.60;;
46753;SDS011;32500;50.620;3.400;2023-02-08T05:52:40;61.73;;;51.70;;
46753;SDS011;32500;50.620;3.400;2023-02-08T05:55:06;60.40;;;50.77;;
46753;SDS011;32500;50.620;3.400;2023-02-08T05:57:32;60.47;;;51.27;;
46753;SDS011;32500;50.620;3.400;2023-02-08T05:59:58;61.10;;;51.00;;
46753;SDS011;32500;50.620;3.400;2023-02-08T06:02:23;61.20;;;51.37;;
46753;SDS011;32500;50.620;3.400;2023-02-08T06:04:49;61.57;;;51.40;;
46753;SDS011;32500;50.620;3.400;2023-02-08T06:07:15;62.40;;;51.37;;
46753;SDS011;32500;50.620;3.400;2023-02-08T06:09:40;63.33;;;51.23;;
46753;SDS011;32500;50.620;3.400;2023-02-08T06:12:07;61.40;;;51.50;;
46753;SDS011;32500;50.620;3.400;2023-02-08T06:14:34;60.87;;;51.13;;
46753;SDS011;32500;50.620;3.400;2023-02-08T06:16:59;62.47;;;51.80;;
46753;SDS011;32500;50.620;3.400;2023-02-08T06:19:25;62.03;;;50.80;;
46753;SDS011;32500;50.620;3.400;2023-02-08T06:21:51;60.60;;;50.47;;
46753;SDS011;32500;50.620;3.400;2023-02-08T06:24:16;61.33;;;51.13;;
46753;SDS011;32500;50.620;3.400;2023-02-08T06:26:42;62.97;;;51.33;;
46753;SDS011;32500;50.620;3.400;2023-02-08T06:29:09;63.03;;;50.93;;
46753;SDS011;32500;50.620;3.400;2023-02-08T06:31:34;62.57;;;51.87;;
46753;SDS011;32500;50.620;3.400;2023-02-08T06:34:00;62.37;;;51.90;;
46753;SDS011;32500;50.620;3.400;2023-02-08T06:36:26;64.60;;;51.47;;
46753;SDS011;32500;50.620;3.400;2023-02-08T06:38:52;63.07;;;52.23;;
46753;SDS011;32500;50.620;3.400;2023-02-08T06:41:17;62.97;;;52.00;;
46753;SDS011;32500;50.620;3.400;2023-02-08T06:43:43;62.13;;;51.53;;
46753;SDS011;32500;50.620;3.400;2023-02-08T06:46:09;65.37;;;52.17;;
46753;SDS011;32500;50.620;3.400;2023-02-08T06:48:35;60.83;;;51.07;;
46753;SDS011;32500;50.620;3.400;2023-02-08T06:51:00;63.43;;;52.10;;
46753;SDS011;32500;50.620;3.400;2023-02-08T06:53:26;62.27;;;51.20;;
46753;SDS011;32500;50.620;3.400;2023-02-08T06:55:52;65.17;;;53.23;;
46753;SDS011;32500;50.620;3.400;2023-02-08T06:58:18;65.17;;;51.87;;
46753;SDS011;32500;50.620;3.400;2023-02-08T07:00:44;63.03;;;51.93;;
46753;SDS011;32500;50.620;3.400;2023-02-08T07:03:10;62.57;;;51.63;;
46753;SDS011;32500;50.620;3.400;2023-02-08T07:05:37;61.80;;;51.63;;
46753;SDS011;32500;50.620;3.400;2023-02-08T07:08:03;63.67;;;50.73;;
46753;SDS011;32500;50.620;3.400;2023-02-08T07:10:29;62.10;;;51.67;;
46753;SDS011;32500;50.620;3.400;2023-02-08T07:12:55;64.03;;;52.37;;
46753;SDS011;32500;50.620;3.400;2023-02-08T07:15:20;65.43;;;51.87;;
46753;SDS011;32500;50.620;3.400;2023-02-08T07:17:46;62.73;;;52.07;;
46753;SDS011;32500;50.620;3.400;2023-02-08T07:20:12;69.03;;;53.90;;
46753;SDS011;32500;50.620;3.400;2023-02-08T07:22:38;69.83;;;54.27;;
46753;SDS011;32500;50.620;3.400;2023-02-08T07:25:05;68.20;;;54.20;;
46753;SDS011;32500;50.620;3.400;2023-02-08T07:27:32;67.57;;;53.67;;
46753;SDS011;32500;50.620;3.400;2023-02-08T07:29:58;65.80;;;54.13;;
46753;SDS011;32500;50.620;3.400;2023-02-08T07:32:24;68.18;;;54.15;;
46753;SDS011;32500;50.620;3.400;2023-02-08T07:34:49;68.63;;;53.97;;
46753;SDS011;32500;50.620;3.400;2023-02-08T07:37:15;66.78;;;53.95;;
46753;SDS011;32500;50.620;3.400;2023-02-08T07:39:41;67.90;;;53.88;;
46753;SDS011;32500;50.620;3.400;2023-02-08T07:42:07;71.17;;;53.00;;
46753;SDS011;32500;50.620;3.400;2023-02-08T07:44:35;65.10;;;53.95;;
46753;SDS011;32500;50.620;3.400;2023-02-08T07:47:02;66.67;;;53.43;;
46753;SDS011;32500;50.620;3.400;2023-02-08T07:49:28;71.20;;;54.07;;
46753;SDS011;32500;50.620;3.400;2023-02-08T07:51:54;73.07;;;57.58;;
46753;SDS011;32500;50.620;3.400;2023-02-08T07:54:19;86.90;;;67.95;;
46753;SDS011;32500;50.620;3.400;2023-02-08T07:56:45;84.50;;;65.93;;
46753;SDS011;32500;50.620;3.400;2023-02-08T07:59:11;81.35;;;63.38;;
46753;SDS011;32500;50.620;3.400;2023-02-08T08:01:36;76.30;;;60.95;;
46753;SDS011;32500;50.620;3.400;2023-02-08T08:04:02;79.30;;;61.22;;
46753;SDS011;32500;50.620;3.400;2023-02-08T08:06:28;77.32;;;61.33;;
46753;SDS011;32500;50.620;3.400;2023-02-08T08:08:53;74.70;;;59.33;;
46753;SDS011;32500;50.620;3.400;2023-02-08T08:11:19;75.97;;;59.70;;
46753;SDS011;32500;50.620;3.400;2023-02-08T08:13:46;75.25;;;59.50;;
46753;SDS011;32500;50.620;3.400;2023-02-08T08:16:12;76.00;;;59.78;;
46753;SDS011;32500;50.620;3.400;2023-02-08T08:18:37;74.78;;;58.78;;
46753;SDS011;32500;50.620;3.400;2023-02-08T08:21:03;72.85;;;59.13;;
46753;SDS011;32500;50.620;3.400;2023-02-08T08:23:29;76.05;;;58.60;;
46753;SDS011;32500;50.620;3.400;2023-02-08T08:25:57;72.60;;;58.63;;
46753;SDS011;32500;50.620;3.400;2023-02-08T08:28:43;74.15;;;58.22;;
46753;SDS011;32500;50.620;3.400;2023-02-08T08:31:14;74.82;;;57.53;;
46753;SDS011;32500;50.620;3.400;2023-02-08T08:33:41;74.13;;;58.55;;
46753;SDS011;32500;50.620;3.400;2023-02-08T08:36:08;76.45;;;57.70;;
46753;SDS011;32500;50.620;3.400;2023-02-08T08:38:34;74.03;;;57.72;;
46753;SDS011;32500;50.620;3.400;2023-02-08T08:41:05;77.57;;;57.08;;
46753;SDS011;32500;50.620;3.400;2023-02-08T08:43:46;74.80;;;57.13;;
46753;SDS011;32500;50.620;3.400;2023-02-08T08:46:12;78.10;;;57.50;;
46753;SDS011;32500;50.620;3.400;2023-02-08T08:48:39;77.05;;;56.63;;
46753;SDS011;32500;50.620;3.400;2023-02-08T08:51:04;74.93;;;56.80;;
46753;SDS011;32500;50.620;3.400;2023-02-08T08:53:30;87.35;;;62.28;;
46753;SDS011;32500;50.620;3.400;2023-02-08T08:55:56;95.25;;;71.43;;
46753;SDS011;32500;50.620;3.400;2023-02-08T08:58:22;91.30;;;66.00;;
46753;SDS011;32500;50.620;3.400;2023-02-08T09:00:48;89.13;;;63.20;;
46753;SDS011;32500;50.620;3.400;2023-02-08T09:03:14;92.40;;;64.68;;
46753;SDS011;32500;50.620;3.400;2023-02-08T09:05:39;85.43;;;62.88;;
46753;SDS011;32500;50.620;3.400;2023-02-08T09:08:05;84.05;;;62.20;;
46753;SDS011;32500;50.620;3.400;2023-02-08T09:10:31;84.13;;;61.58;;
46753;SDS011;32500;50.620;3.400;2023-02-08T09:12:57;86.47;;;63.00;;
46753;SDS011;32500;50.620;3.400;2023-02-08T09:15:23;83.88;;;61.35;;
46753;SDS011;32500;50.620;3.400;2023-02-08T09:17:49;90.68;;;61.08;;
46753;SDS011;32500;50.620;3.400;2023-02-08T09:20:14;88.50;;;61.13;;
46753;SDS011;32500;50.620;3.400;2023-02-08T09:22:40;80.85;;;60.03;;
46753;SDS011;32500;50.620;3.400;2023-02-08T09:25:06;82.18;;;59.30;;
46753;SDS011;32500;50.620;3.400;2023-02-08T09:27:33;82.90;;;59.90;;
46753;SDS011;32500;50.620;3.400;2023-02-08T09:29:59;77.93;;;59.53;;
46753;SDS011;32500;50.620;3.400;2023-02-08T09:32:25;76.65;;;58.80;;
46753;SDS011;32500;50.620;3.400;2023-02-08T09:34:51;78.18;;;58.90;;
46753;SDS011;32500;50.620;3.400;2023-02-08T09:37:19;79.38;;;58.05;;
46753;SDS011;32500;50.620;3.400;2023-02-08T09:39:45;77.85;;;57.75;;
46753;SDS011;32500;50.620;3.400;2023-02-08T09:42:25;74.88;;;57.38;;
46753;SDS011;32500;50.620;3.400;2023-02-08T09:50:37;80.28;;;57.78;;
46753;SDS011;32500;50.620;3.400;2023-02-08T09:55:37;73.97;;;56.00;;
46753;SDS011;32500;50.620;3.400;2023-02-08T10:00:57;81.50;;;59.28;;
46753;SDS011;32500;50.620;3.400;2023-02-08T10:03:28;81.97;;;58.50;;
46753;SDS011;32500;50.620;3.400;2023-02-08T10:06:03;73.82;;;56.80;;
46753;SDS011;32500;50.620;3.400;2023-02-08T10:08:31;79.57;;;56.63;;
46753;SDS011;32500;50.620;3.400;2023-02-08T10:11:02;78.18;;;57.00;;
46753;SDS011;32500;50.620;3.400;2023-02-08T10:26:56;72.88;;;55.25;;
46753;SDS011;32500;50.620;3.400;2023-02-08T10:37:12;73.30;;;54.72;;
46753;SDS011;32500;50.620;3.400;2023-02-08T10:39:38;73.97;;;54.70;;
46753;SDS011;32500;50.620;3.400;2023-02-08T10:42:08;71.88;;;54.38;;
46753;SDS011;32500;50.620;3.400;2023-02-08T10:48:44;76.63;;;54.05;;
46753;SDS011;32500;50.620;3.400;2023-02-08T10:50:55;75.35;;;53.85;;
46753;SDS011;32500;50.620;3.400;2023-02-08T10:53:21;72.30;;;54.50;;
46753;SDS011;32500;50.620;3.400;2023-02-08T10:55:47;75.53;;;55.42;;
46753;SDS011;32500;50.620;3.400;2023-02-08T10:58:20;72.18;;;54.75;;
46753;SDS011;32500;50.620;3.400;2023-02-08T11:00:48;72.38;;;54.47;;
46753;SDS011;32500;50.620;3.400;2023-02-08T11:03:26;74.88;;;54.40;;
46753;SDS011;32500;50.620;3.400;2023-02-08T11:05:53;73.65;;;54.53;;
46753;SDS011;32500;50.620;3.400;2023-02-08T11:08:23;72.50;;;53.50;;
46753;SDS011;32500;50.620;3.400;2023-02-08T11:10:54;71.03;;;54.22;;
46753;SDS011;32500;50.620;3.400;2023-02-08T11:13:20;71.07;;;53.72;;
46753;SDS011;32500;50.620;3.400;2023-02-08T11:15:47;71.13;;;53.42;;
46753;SDS011;32500;50.620;3.400;2023-02-08T11:18:18;73.15;;;53.50;;
46753;SDS011;32500;50.620;3.400;2023-02-08T11:20:53;71.93;;;53.00;;
46753;SDS011;32500;50.620;3.400;2023-02-08T11:25:52;73.82;;;52.78;;
46753;SDS011;32500;50.620;3.400;2023-02-08T11:28:23;68.82;;;52.72;;
46753;SDS011;32500;50.620;3.400;2023-02-08T11:30:58;72.85;;;52.28;;
46753;SDS011;32500;50.620;3.400;2023-02-08T11:33:26;69.47;;;52.40;;
46753;SDS011;32500;50.620;3.400;2023-02-08T11:35:57;69.35;;;52.22;;
46753;SDS011;32500;50.620;3.400;2023-02-08T11:38:28;71.25;;;55.80;;
46753;SDS011;32500;50.620;3.400;2023-02-08T11:40:58;78.05;;;55.97;;
46753;SDS011;32500;50.620;3.400;2023-02-08T11:43:27;75.45;;;56.28;;
46753;SDS011;32500;50.620;3.400;2023-02-08T11:45:55;71.75;;;54.70;;
46753;SDS011;32500;50.620;3.400;2023-02-08T11:48:39;75.90;;;54.90;;
46753;SDS011;32500;50.620;3.400;2023-02-08T11:51:13;71.80;;;54.40;;
46753;SDS011;32500;50.620;3.400;2023-02-08T11:53:52;74.93;;;53.80;;
46753;SDS011;32500;50.620;3.400;2023-02-08T11:56:20;70.75;;;54.03;;
46753;SDS011;32500;50.620;3.400;2023-02-08T11:59:00;73.10;;;53.53;;
46753;SDS011;32500;50.620;3.400;2023-02-08T12:01:39;69.82;;;52.90;;
46753;SDS011;32500;50.620;3.400;2023-02-08T12:04:10;72.78;;;53.70;;
46753;SDS011;32500;50.620;3.400;2023-02-08T12:11:45;70.53;;;53.05;;
46753;SDS011;32500;50.620;3.400;2023-02-08T12:14:20;71.30;;;52.60;;
46753;SDS011;32500;50.620;3.400;2023-02-08T12:22:41;69.68;;;52.35;;
46753;SDS011;32500;50.620;3.400;2023-02-08T12:25:51;68.15;;;52.08;;
46753;SDS011;32500;50.620;3.400;2023-02-08T12:33:43;70.93;;;52.08;;
46753;SDS011;32500;50.620;3.400;2023-02-08T12:36:26;69.53;;;51.45;;
46753;SDS011;32500;50.620;3.400;2023-02-08T12:38:58;71.05;;;51.88;;
46753;SDS011;32500;50.620;3.400;2023-02-08T12:49:54;76.65;;;51.63;;
46753;SDS011;32500;50.620;3.400;2023-02-08T12:52:24;79.43;;;57.97;;
46753;SDS011;32500;50.620;3.400;2023-02-08T12:57:40;83.70;;;58.58;;
46753;SDS011;32500;50.620;3.400;2023-02-08T13:05:22;79.05;;;56.63;;
46753;SDS011;32500;50.620;3.400;2023-02-08T13:08:00;75.40;;;55.30;;
46753;SDS011;32500;50.620;3.400;2023-02-08T13:10:46;77.93;;;55.42;;
46753;SDS011;32500;50.620;3.400;2023-02-08T13:13:17;78.82;;;55.70;;
46753;SDS011;32500;50.620;3.400;2023-02-08T13:15:51;75.20;;;55.03;;
46753;SDS011;32500;50.620;3.400;2023-02-08T13:18:26;75.68;;;54.58;;
46753;SDS011;32500;50.620;3.400;2023-02-08T13:20:58;80.15;;;56.75;;
46753;SDS011;32500;50.620;3.400;2023-02-08T13:23:27;85.00;;;57.58;;
46753;SDS011;32500;50.620;3.400;2023-02-08T13:25:56;76.50;;;55.72;;
46753;SDS011;32500;50.620;3.400;2023-02-08T13:28:26;74.53;;;54.58;;
46753;SDS011;32500;50.620;3.400;2023-02-08T13:30:53;75.80;;;55.30;;
46753;SDS011;32500;50.620;3.400;2023-02-08T13:33:33;75.22;;;54.10;;
46753;SDS011;32500;50.620;3.400;2023-02-08T13:36:10;75.03;;;54.40;;
46753;SDS011;32500;50.620;3.400;2023-02-08T13:38:52;74.75;;;54.33;;
46753;SDS011;32500;50.620;3.400;2023-02-08T13:41:20;74.97;;;54.35;;
46753;SDS011;32500;50.620;3.400;2023-02-08T13:46:21;73.60;;;54.53;;
46753;SDS011;32500;50.620;3.400;2023-02-08T13:48:50;74.03;;;53.97;;
46753;SDS011;32500;50.620;3.400;2023-02-08T13:59:38;73.13;;;53.72;;
46753;SDS011;32500;50.620;3.400;2023-02-08T14:04:43;74.45;;;53.65;;
46753;SDS011;32500;50.620;3.400;2023-02-08T14:20:15;73.60;;;53.13;;
46753;SDS011;32500;50.620;3.400;2023-02-08T14:22:48;74.55;;;53.03;;
46753;SDS011;32500;50.620;3.400;2023-02-08T14:25:17;77.00;;;53.13;;
46753;SDS011;32500;50.620;3.400;2023-02-08T14:28:01;73.10;;;52.42;;
46753;SDS011;32500;50.620;3.400;2023-02-08T14:30:30;73.80;;;52.75;;
46753;SDS011;32500;50.620;3.400;2023-02-08T14:35:27;74.13;;;52.72;;
46753;SDS011;32500;50.620;3.400;2023-02-08T14:38:29;72.78;;;52.88;;
46753;SDS011;32500;50.620;3.400;2023-02-08T14:40:57;74.97;;;52.80;;
46753;SDS011;32500;50.620;3.400;2023-02-08T14:43:27;71.75;;;52.53;;
46753;SDS011;32500;50.620;3.400;2023-02-08T14:46:40;75.78;;;52.65;;
46753;SDS011;32500;50.620;3.400;2023-02-08T14:49:02;74.97;;;52.65;;
46753;SDS011;32500;50.620;3.400;2023-02-08T14:51:33;75.18;;;52.45;;
46753;SDS011;32500;50.620;3.400;2023-02-08T14:54:03;74.93;;;52.35;;
46753;SDS011;32500;50.620;3.400;2023-02-08T14:57:05;71.45;;;51.65;;
46753;SDS011;32500;50.620;3.400;2023-02-08T14:59:44;72.90;;;52.05;;
46753;SDS011;32500;50.620;3.400;2023-02-08T15:02:14;72.07;;;51.95;;
46753;SDS011;32500;50.620;3.400;2023-02-08T15:04:45;76.00;;;52.13;;
46753;SDS011;32500;50.620;3.400;2023-02-08T15:07:16;74.20;;;52.20;;
46753;SDS011;32500;50.620;3.400;2023-02-08T15:09:43;73.18;;;51.72;;
46753;SDS011;32500;50.620;3.400;2023-02-08T15:17:15;72.15;;;51.30;;
46753;SDS011;32500;50.620;3.400;2023-02-08T15:19:46;72.50;;;51.55;;
46753;SDS011;32500;50.620;3.400;2023-02-08T15:24:51;71.47;;;51.65;;
46753;SDS011;32500;50.620;3.400;2023-02-08T15:27:20;70.78;;;51.53;;
46753;SDS011;32500;50.620;3.400;2023-02-08T15:29:50;71.68;;;51.25;;
46753;SDS011;32500;50.620;3.400;2023-02-08T15:32:17;72.53;;;51.22;;
46753;SDS011;32500;50.620;3.400;2023-02-08T15:34:47;70.13;;;51.25;;
46753;SDS011;32500;50.620;3.400;2023-02-08T15:37:17;72.35;;;51.20;;
46753;SDS011;32500;50.620;3.400;2023-02-08T15:39:43;69.88;;;51.17;;
46753;SDS011;32500;50.620;3.400;2023-02-08T15:42:17;70.72;;;51.53;;
46753;SDS011;32500;50.620;3.400;2023-02-08T15:44:44;73.65;;;51.72;;
46753;SDS011;32500;50.620;3.400;2023-02-08T15:47:32;76.63;;;52.60;;
46753;SDS011;32500;50.620;3.400;2023-02-08T15:49:59;72.90;;;51.85;;
46753;SDS011;32500;50.620;3.400;2023-02-08T15:52:27;72.63;;;51.55;;
46753;SDS011;32500;50.620;3.400;2023-02-08T15:54:55;70.78;;;51.92;;
46753;SDS011;32500;50.620;3.400;2023-02-08T15:57:42;68.95;;;51.15;;
46753;SDS011;32500;50.620;3.400;2023-02-08T16:00:20;70.10;;;51.58;;
46753;SDS011;32500;50.620;3.400;2023-02-08T16:02:51;70.43;;;50.92;;
46753;SDS011;32500;50.620;3.400;2023-02-08T16:05:19;72.03;;;51.08;;
46753;SDS011;32500;50.620;3.400;2023-02-08T16:07:50;69.70;;;51.35;;
46753;SDS011;32500;50.620;3.400;2023-02-08T16:10:21;77.88;;;51.78;;
46753;SDS011;32500;50.620;3.400;2023-02-08T16:12:58;70.72;;;51.70;;
46753;SDS011;32500;50.620;3.400;2023-02-08T16:15:47;73.63;;;51.38;;
46753;SDS011;32500;50.620;3.400;2023-02-08T16:26:44;70.18;;;51.70;;
46753;SDS011;32500;50.620;3.400;2023-02-08T16:29:58;72.93;;;51.75;;
46753;SDS011;32500;50.620;3.400;2023-02-08T16:34:33;69.10;;;51.35;;
46753;SDS011;32500;50.620;3.400;2023-02-08T16:37:02;70.10;;;51.28;;
46753;SDS011;32500;50.620;3.400;2023-02-08T16:42:21;73.22;;;52.47;;
46753;SDS011;32500;50.620;3.400;2023-02-08T16:45:26;75.03;;;51.53;;
46753;SDS011;32500;50.620;3.400;2023-02-08T16:47:47;75.30;;;51.85;;
46753;SDS011;32500;50.620;3.400;2023-02-08T16:50:21;71.88;;;51.50;;
46753;SDS011;32500;50.620;3.400;2023-02-08T16:52:51;74.13;;;51.63;;
46753;SDS011;32500;50.620;3.400;2023-02-08T16:55:20;72.28;;;51.65;;
46753;SDS011;32500;50.620;3.400;2023-02-08T16:57:50;70.65;;;50.92;;
46753;SDS011;32500;50.620;3.400;2023-02-08T17:00:27;72.75;;;51.50;;
46753;SDS011;32500;50.620;3.400;2023-02-08T17:02:56;70.63;;;51.60;;
46753;SDS011;32500;50.620;3.400;2023-02-08T17:05:22;70.90;;;51.47;;
46753;SDS011;32500;50.620;3.400;2023-02-08T17:07:51;70.57;;;51.33;;
46753;SDS011;32500;50.620;3.400;2023-02-08T17:10:27;71.18;;;51.30;;
46753;SDS011;32500;50.620;3.400;2023-02-08T17:12:55;69.28;;;50.75;;
46753;SDS011;32500;50.620;3.400;2023-02-08T17:15:22;68.13;;;50.45;;
46753;SDS011;32500;50.620;3.400;2023-02-08T17:17:49;70.68;;;50.95;;
46753;SDS011;32500;50.620;3.400;2023-02-08T17:20:19;70.18;;;50.83;;
46753;SDS011;32500;50.620;3.400;2023-02-08T17:23:04;70.30;;;51.28;;
46753;SDS011;32500;50.620;3.400;2023-02-08T17:25:30;69.13;;;50.83;;
46753;SDS011;32500;50.620;3.400;2023-02-08T17:27:58;69.32;;;51.03;;
46753;SDS011;32500;50.620;3.400;2023-02-08T17:30:31;69.70;;;51.15;;